createdAt,value
2022-08-05T00:00:20.353Z,99.90
2022-08-05T00:02:51.458Z,99.90
2022-08-05T00:06:01.858Z,99.90
2022-08-05T00:08:19.978Z,99.90
2022-08-05T00:10:56.426Z,99.90
2022-08-05T00:13:39.462Z,99.90
2022-08-05T00:16:12.484Z,99.90
2022-08-05T00:18:48.199Z,99.90
2022-08-05T00:21:17.684Z,99.90
2022-08-05T00:24:05.053Z,99.90
2022-08-05T00:26:34.038Z,99.90
2022-08-05T00:29:00.837Z,99.90
2022-08-05T00:31:53.134Z,99.90
2022-08-05T00:34:53.350Z,99.90
2022-08-05T00:37:12.816Z,99.90
2022-08-05T00:39:44.392Z,99.90
2022-08-05T00:42:38.071Z,99.90
2022-08-05T00:45:08.856Z,99.90
2022-08-05T00:47:53.200Z,99.90
2022-08-05T00:50:25.115Z,99.90
2022-08-05T00:52:53.266Z,99.90
2022-08-05T00:55:20.312Z,99.90
2022-08-05T00:57:58.127Z,99.90
2022-08-05T01:00:30.190Z,99.90
2022-08-05T01:02:59.686Z,99.90
2022-08-05T01:05:27.578Z,99.90
2022-08-05T01:08:30.377Z,99.90
2022-08-05T01:10:52.265Z,99.90
2022-08-05T01:13:57.421Z,99.90
2022-08-05T01:16:44.170Z,99.90
2022-08-05T01:19:56.429Z,99.90
2022-08-05T01:22:34.215Z,99.90
2022-08-05T01:25:18.376Z,99.90
2022-08-05T01:28:17.183Z,99.90
2022-08-05T01:30:53.957Z,99.90
2022-08-05T01:33:26.195Z,99.90
2022-08-05T01:35:55.532Z,99.90
2022-08-05T01:38:27.514Z,99.90
2022-08-05T01:41:01.615Z,99.90
2022-08-05T01:43:29.314Z,99.90
2022-08-05T01:45:58.901Z,99.90
2022-08-05T01:48:36.716Z,99.90
2022-08-05T01:51:12.526Z,99.90
2022-08-05T01:53:56.961Z,99.90
2022-08-05T01:58:29.944Z,99.90
2022-08-05T01:59:23.202Z,99.90
2022-08-05T02:01:52.685Z,99.90
2022-08-05T02:04:24.163Z,99.90
2022-08-05T02:06:52.879Z,99.90
2022-08-05T02:09:20.614Z,99.90
2022-08-05T02:12:29.569Z,99.90
2022-08-05T02:15:12.223Z,99.90
2022-08-05T02:18:28.228Z,99.90
2022-08-05T02:20:47.004Z,99.90
2022-08-05T02:23:14.842Z,99.90
2022-08-05T02:25:49.855Z,99.90
2022-08-05T02:28:32.146Z,99.90
2022-08-05T02:31:14.659Z,99.90
2022-08-05T02:33:48.610Z,99.90
2022-08-05T02:36:27.407Z,99.90
2022-08-05T02:38:57.749Z,99.90
2022-08-05T02:41:28.604Z,99.90
2022-08-05T02:44:12.230Z,99.90
2022-08-05T02:46:53.159Z,99.90
2022-08-05T02:49:27.273Z,99.90
2022-08-05T02:52:05.489Z,99.90
2022-08-05T02:54:36.374Z,99.90
2022-08-05T02:57:10.235Z,99.90
2022-08-05T02:59:55.907Z,99.90
2022-08-05T03:02:29.023Z,99.90
2022-08-05T03:04:57.932Z,99.90
2022-08-05T03:08:00.245Z,99.90
2022-08-05T03:10:16.194Z,99.90
2022-08-05T03:12:52.481Z,99.90
2022-08-05T03:15:21.258Z,99.90
2022-08-05T03:17:54.059Z,99.90
2022-08-05T03:20:22.587Z,99.90
2022-08-05T03:22:51.501Z,99.90
2022-08-05T03:26:03.869Z,99.90
2022-08-05T03:28:09.192Z,99.90
2022-08-05T03:30:36.759Z,99.90
2022-08-05T03:33:06.411Z,99.90
2022-08-05T03:35:41.022Z,99.90
2022-08-05T03:38:12.661Z,99.90
2022-08-05T03:40:48.691Z,99.90
2022-08-05T03:44:08.815Z,99.90
2022-08-05T03:46:04.938Z,99.90
2022-08-05T03:48:35.305Z,99.90
2022-08-05T03:52:38.008Z,99.90
2022-08-05T03:55:06.979Z,99.90
2022-08-05T03:57:16.141Z,99.90
2022-08-05T03:59:55.452Z,99.90
2022-08-05T04:02:38.358Z,99.90
2022-08-05T04:05:09.900Z,99.90
2022-08-05T04:07:46.766Z,99.90
2022-08-05T04:10:27.916Z,99.90
2022-08-05T04:12:58.930Z,99.90
2022-08-05T04:15:27.812Z,99.90
2022-08-05T04:17:57.397Z,99.90
2022-08-05T04:20:26.701Z,99.90
2022-08-05T04:22:53.623Z,99.90
2022-08-05T04:25:24.339Z,99.90
2022-08-05T04:28:11.440Z,99.90
2022-08-05T04:30:39.806Z,99.90
2022-08-05T04:33:06.578Z,99.90
2022-08-05T04:36:15.635Z,99.90
2022-08-05T04:38:21.378Z,99.90
2022-08-05T04:40:50.848Z,99.90
2022-08-05T04:43:17.980Z,99.90
2022-08-05T04:45:55.606Z,99.90
2022-08-05T04:48:27.660Z,99.90
2022-08-05T04:51:03.813Z,99.90
2022-08-05T04:53:39.133Z,99.90
2022-08-05T04:56:32.912Z,99.90
2022-08-05T04:58:56.469Z,99.90
2022-08-05T05:02:06.175Z,99.90
2022-08-05T05:04:10.309Z,99.90
2022-08-05T05:06:44.556Z,99.90
2022-08-05T05:09:14.112Z,99.90
2022-08-05T05:11:53.123Z,99.90
2022-08-05T05:14:28.106Z,99.90
2022-08-05T05:17:00.312Z,99.90
2022-08-05T05:19:36.164Z,99.90
2022-08-05T05:22:24.032Z,99.90
2022-08-05T05:24:57.548Z,99.90
2022-08-05T05:27:44.776Z,99.90
2022-08-05T05:30:29.419Z,99.90
2022-08-05T05:33:03.452Z,99.90
2022-08-05T05:35:37.873Z,99.90
2022-08-05T05:38:09.236Z,99.90
2022-08-05T05:40:43.814Z,99.90
2022-08-05T05:43:22.229Z,99.90
2022-08-05T05:46:05.288Z,99.90
2022-08-05T05:48:34.604Z,99.90
2022-08-05T05:51:14.804Z,99.90
2022-08-05T05:53:54.597Z,99.90
2022-08-05T05:56:32.543Z,99.90
2022-08-05T05:59:10.347Z,99.90
2022-08-05T06:01:41.186Z,99.90
2022-08-05T06:04:25.028Z,99.90
2022-08-05T06:06:51.965Z,99.90
2022-08-05T06:09:35.387Z,99.90
2022-08-05T06:12:06.037Z,99.90
2022-08-05T06:14:36.555Z,99.90
2022-08-05T06:17:22.419Z,99.90
2022-08-05T06:19:56.678Z,99.90
2022-08-05T06:22:34.776Z,99.90
2022-08-05T06:25:24.241Z,99.90
2022-08-05T06:28:10.812Z,99.90
2022-08-05T06:30:37.770Z,99.90
2022-08-05T06:33:04.573Z,99.90
2022-08-05T06:36:07.984Z,99.90
2022-08-05T06:38:35.811Z,99.90
2022-08-05T06:41:03.502Z,99.90
2022-08-05T06:43:57.661Z,99.90
2022-08-05T06:46:17.695Z,99.90
2022-08-05T06:48:54.660Z,99.90
2022-08-05T06:51:29.861Z,99.90
2022-08-05T06:54:02.707Z,99.90
2022-08-05T06:56:34.387Z,99.90
2022-08-05T06:59:03.056Z,99.90
2022-08-05T07:01:32.398Z,99.90
2022-08-05T07:04:02.362Z,99.90
2022-08-05T07:06:30.475Z,99.90
2022-08-05T07:08:59.348Z,99.90
2022-08-05T07:11:28.691Z,99.90
2022-08-05T07:14:20.143Z,99.90
2022-08-05T07:18:01.401Z,99.90
2022-08-05T07:20:31.454Z,99.90
2022-08-05T07:22:35.187Z,99.90
2022-08-05T07:25:24.117Z,99.90
2022-08-05T07:27:57.228Z,99.90
2022-08-05T07:30:34.432Z,99.90
2022-08-05T07:33:09.515Z,99.90
2022-08-05T07:36:03.940Z,99.90
2022-08-05T07:38:33.532Z,99.90
2022-08-05T07:42:09.594Z,99.90
2022-08-05T07:43:58.325Z,99.90
2022-08-05T07:46:27.562Z,99.90
2022-08-05T07:49:02.776Z,99.90
2022-08-05T07:51:48.734Z,99.90
2022-08-05T07:54:31.190Z,99.90
2022-08-05T07:57:01.973Z,99.90
2022-08-05T07:59:48.749Z,99.90
2022-08-05T08:02:17.597Z,99.90
2022-08-05T08:04:49.528Z,99.90
2022-08-05T08:07:22.137Z,99.90
2022-08-05T08:09:52.485Z,99.90
2022-08-05T08:12:36.824Z,99.90
2022-08-05T08:15:09.499Z,99.90
2022-08-05T08:17:50.745Z,99.90
2022-08-05T08:21:00.051Z,99.90
2022-08-05T08:23:11.703Z,99.90
2022-08-05T08:26:00.146Z,99.90
2022-08-05T08:28:36.530Z,99.90
2022-08-05T08:31:05.925Z,99.90
2022-08-05T08:33:37.586Z,99.90
2022-08-05T08:36:38.451Z,99.90
2022-08-05T08:38:55.945Z,99.90
2022-08-05T08:41:52.244Z,99.90
2022-08-05T08:45:23.067Z,99.90
2022-08-05T08:47:21.840Z,99.90
2022-08-05T08:50:14.637Z,99.90
2022-08-05T08:52:53.245Z,99.90
2022-08-05T08:56:03.116Z,99.90
2022-08-05T08:58:09.295Z,99.90
2022-08-05T09:00:36.754Z,99.90
2022-08-05T09:03:06.609Z,99.90
2022-08-05T09:05:39.019Z,99.90
2022-08-05T09:08:27.294Z,99.90
2022-08-05T09:10:54.653Z,99.90
2022-08-05T09:13:24.853Z,99.90
2022-08-05T09:15:58.710Z,99.90
2022-08-05T09:18:25.950Z,99.90
2022-08-05T09:20:52.944Z,99.90
2022-08-05T09:23:21.572Z,99.90
2022-08-05T09:26:00.818Z,99.90
2022-08-05T09:28:32.381Z,99.90
2022-08-05T09:32:38.706Z,99.90
2022-08-05T09:34:01.779Z,99.90
2022-08-05T09:36:55.186Z,99.90
2022-08-05T09:39:27.797Z,99.90
2022-08-05T09:42:08.777Z,99.90
2022-08-05T09:44:42.722Z,99.90
2022-08-05T09:47:16.976Z,99.90
2022-08-05T09:50:01.262Z,99.90
2022-08-05T09:52:34.302Z,99.90
2022-08-05T09:55:06.260Z,99.90
2022-08-05T09:57:43.447Z,99.40
2022-08-05T10:00:19.064Z,99.20
2022-08-05T10:02:49.555Z,99.10
2022-08-05T10:05:21.878Z,99.30
2022-08-05T10:08:36.107Z,98.40
2022-08-05T10:10:53.943Z,99.20
2022-08-05T10:13:45.676Z,98.20
2022-08-05T10:16:33.762Z,97.90
2022-08-05T10:19:01.844Z,98.20
2022-08-05T10:21:40.811Z,98.50
2022-08-05T10:24:13.455Z,98.10
2022-08-05T10:26:48.948Z,98.20
2022-08-05T10:30:05.745Z,96.80
2022-08-05T10:32:52.208Z,97.00
2022-08-05T10:34:57.850Z,97.60
2022-08-05T10:37:41.368Z,97.40
2022-08-05T10:40:45.028Z,96.90
2022-08-05T10:43:17.470Z,97.30
2022-08-05T10:46:07.424Z,98.00
2022-08-05T10:48:52.691Z,97.60
2022-08-05T10:51:28.706Z,97.70
2022-08-05T10:53:58.563Z,95.60
2022-08-05T10:56:36.564Z,96.30
2022-08-05T10:59:12.316Z,95.40
2022-08-05T11:01:55.012Z,93.40
2022-08-05T11:04:31.806Z,93.80
2022-08-05T11:07:06.565Z,94.50
2022-08-05T11:10:03.950Z,95.00
2022-08-05T11:12:45.321Z,94.60
2022-08-05T11:15:21.312Z,96.00
2022-08-05T11:18:11.802Z,94.70
2022-08-05T11:20:44.301Z,94.80
2022-08-05T11:24:04.529Z,94.90
2022-08-05T11:26:32.987Z,94.40
2022-08-05T11:29:12.007Z,94.40
2022-08-05T11:31:57.004Z,93.90
2022-08-05T11:34:51.688Z,93.90
2022-08-05T11:38:27.961Z,94.60
2022-08-05T11:41:35.084Z,94.40
2022-08-05T11:44:05.473Z,94.10
2022-08-05T11:46:58.422Z,94.50
2022-08-05T11:49:28.440Z,93.10
2022-08-05T11:51:57.453Z,93.10
2022-08-05T11:54:33.554Z,92.60
2022-08-05T11:57:07.651Z,92.10
2022-08-05T11:59:41.252Z,93.10
2022-08-05T12:02:30.475Z,93.70
2022-08-05T12:05:07.494Z,94.40
2022-08-05T12:08:08.670Z,93.70
2022-08-05T12:10:42.970Z,95.00
2022-08-05T12:13:17.313Z,94.40
2022-08-05T12:15:55.891Z,94.30
2022-08-05T12:18:38.898Z,95.40
2022-08-05T12:21:10.959Z,95.50
2022-08-05T12:23:42.890Z,95.40
2022-08-05T12:26:10.319Z,95.00
2022-08-05T12:28:38.382Z,93.10
2022-08-05T12:31:05.736Z,91.80
2022-08-05T12:33:36.537Z,93.20
2022-08-05T12:36:08.532Z,92.50
2022-08-05T12:38:41.165Z,92.10
2022-08-05T12:41:14.759Z,92.70
2022-08-05T12:44:02.349Z,93.40
2022-08-05T12:46:31.899Z,92.10
2022-08-05T12:49:13.672Z,91.90
2022-08-05T12:52:13.942Z,92.50
2022-08-05T12:54:35.467Z,92.40
2022-08-05T12:57:09.507Z,91.70
2022-08-05T13:01:56.894Z,90.00
2022-08-05T13:02:42.407Z,89.90
2022-08-05T13:05:15.036Z,89.20
2022-08-05T13:08:00.408Z,91.20
2022-08-05T13:10:31.073Z,91.40
2022-08-05T13:12:58.372Z,91.20
2022-08-05T13:15:41.886Z,91.50
2022-08-05T13:18:19.899Z,91.40
2022-08-05T13:20:49.302Z,90.40
2022-08-05T13:23:22.184Z,91.00
2022-08-05T13:25:52.502Z,90.70
2022-08-05T13:28:26.175Z,88.70
2022-08-05T13:30:53.183Z,89.00
2022-08-05T13:34:23.128Z,88.70
2022-08-05T13:36:09.190Z,89.90
2022-08-05T13:38:41.998Z,90.00
2022-08-05T13:41:13.024Z,88.60
2022-08-05T13:43:45.130Z,87.00
2022-08-05T13:49:12.761Z,85.00
2022-08-05T13:51:45.817Z,84.40
2022-08-05T13:54:15.459Z,83.70
2022-08-05T13:56:45.597Z,84.80
2022-08-05T13:59:23.802Z,85.10
2022-08-05T14:01:59.267Z,85.70
2022-08-05T14:04:56.710Z,85.60
2022-08-05T14:08:00.441Z,86.20
2022-08-05T14:10:28.553Z,85.60
2022-08-05T14:12:56.097Z,84.10
2022-08-05T14:16:09.217Z,82.20
2022-08-05T14:18:14.998Z,82.00
2022-08-05T14:20:47.681Z,81.50
2022-08-05T14:23:24.026Z,82.80
2022-08-05T14:25:53.885Z,81.80
2022-08-05T14:28:26.457Z,81.90
2022-08-05T14:30:58.138Z,81.40
2022-08-05T14:33:25.074Z,80.40
2022-08-05T14:35:54.453Z,80.20
2022-08-05T14:38:31.763Z,79.00
2022-08-05T14:41:00.507Z,78.10
2022-08-05T14:43:59.057Z,78.00
2022-08-05T14:46:14.217Z,79.10
2022-08-05T14:48:41.497Z,82.00
2022-08-05T14:51:09.381Z,83.60
2022-08-05T14:53:44.135Z,84.40
2022-08-05T14:56:13.461Z,84.00
2022-08-05T14:58:47.880Z,83.40
2022-08-05T15:01:24.335Z,82.50
2022-08-05T15:04:11.417Z,83.90
2022-08-05T15:06:39.032Z,82.70
2022-08-05T15:09:07.478Z,80.60
2022-08-05T15:11:53.088Z,77.50
2022-08-05T15:14:34.562Z,77.40
2022-08-05T15:17:04.970Z,76.80
2022-08-05T15:19:32.368Z,79.40
2022-08-05T15:22:01.401Z,80.60
2022-08-05T15:24:29.014Z,81.20
2022-08-05T15:26:57.042Z,82.00
2022-08-05T15:29:30.019Z,82.20
2022-08-05T15:32:02.439Z,81.30
2022-08-05T15:34:33.568Z,81.30
2022-08-05T15:37:06.197Z,81.40
2022-08-05T15:40:58.404Z,81.40
2022-08-05T15:42:56.822Z,81.20
2022-08-05T15:45:10.469Z,80.80
2022-08-05T15:47:38.292Z,80.80
2022-08-05T15:50:07.211Z,80.60
2022-08-05T15:52:54.776Z,81.80
2022-08-05T15:55:24.822Z,80.40
2022-08-05T15:58:09.305Z,81.90
2022-08-05T16:00:50.595Z,82.70
2022-08-05T16:03:30.334Z,83.50
2022-08-05T16:05:59.661Z,84.90
2022-08-05T16:08:30.617Z,85.00
2022-08-05T16:10:58.311Z,85.60
2022-08-05T16:13:34.279Z,85.80
2022-08-05T16:16:03.349Z,84.50
2022-08-05T16:18:32.744Z,84.20
2022-08-05T16:21:04.246Z,83.50
2022-08-05T16:23:53.076Z,84.30
2022-08-05T16:26:20.099Z,84.60
2022-08-05T16:28:53.693Z,83.70
2022-08-05T16:31:21.653Z,82.70
2022-08-05T16:33:49.033Z,79.70
2022-08-05T16:36:20.564Z,77.70
2022-08-05T16:38:55.005Z,76.80
2022-08-05T16:42:14.007Z,76.40
2022-08-05T16:44:10.795Z,74.90
2022-08-05T16:46:40.943Z,75.60
2022-08-05T16:49:09.928Z,76.80
2022-08-05T16:51:50.591Z,78.40
2022-08-05T16:54:24.010Z,78.10
2022-08-05T16:56:54.428Z,78.50
2022-08-05T16:59:21.289Z,78.00
2022-08-05T17:01:54.063Z,78.60
2022-08-05T17:04:27.735Z,80.40
2022-08-05T17:06:57.053Z,80.40
2022-08-05T17:09:29.577Z,81.60
2022-08-05T17:12:00.039Z,81.40
2022-08-05T17:14:37.325Z,81.70
2022-08-05T17:17:14.607Z,81.60
2022-08-05T17:19:45.556Z,80.40
2022-08-05T17:22:24.620Z,78.90
2022-08-05T17:24:57.162Z,78.00
2022-08-05T17:27:26.298Z,78.50
2022-08-05T17:30:00.674Z,79.10
2022-08-05T17:32:29.898Z,79.50
2022-08-05T17:34:58.111Z,79.50
2022-08-05T17:37:40.720Z,79.10
2022-08-05T17:40:14.859Z,79.00
2022-08-05T17:42:51.006Z,78.80
2022-08-05T17:45:21.815Z,80.10
2022-08-05T17:47:54.589Z,80.50
2022-08-05T17:50:29.522Z,80.00
2022-08-05T17:53:02.657Z,80.00
2022-08-05T17:55:37.808Z,81.60
2022-08-05T17:58:09.917Z,81.10
2022-08-05T18:00:44.278Z,80.10
2022-08-05T18:03:33.440Z,79.80
2022-08-05T18:06:06.113Z,81.80
2022-08-05T18:08:40.536Z,82.70
2022-08-05T18:11:11.895Z,82.60
2022-08-05T18:13:52.061Z,82.50
2022-08-05T18:16:20.571Z,81.80
2022-08-05T18:18:48.591Z,80.40
2022-08-05T18:21:19.632Z,79.60
2022-08-05T18:23:48.278Z,81.20
2022-08-05T18:26:16.244Z,80.30
2022-08-05T18:28:46.597Z,79.70
2022-08-05T18:31:15.909Z,79.60
2022-08-05T18:33:46.637Z,80.40
2022-08-05T18:36:15.392Z,80.40
2022-08-05T18:38:43.003Z,80.80
2022-08-05T18:41:55.146Z,80.70
2022-08-05T18:43:58.066Z,79.70
2022-08-05T18:46:32.725Z,78.90
2022-08-05T18:49:20.396Z,80.00
2022-08-05T18:52:09.135Z,79.60
2022-08-05T18:54:41.308Z,80.10
2022-08-05T18:57:15.390Z,80.80
2022-08-05T19:00:02.181Z,81.70
2022-08-05T19:02:29.717Z,83.20
2022-08-05T19:05:02.750Z,83.60
2022-08-05T19:07:47.945Z,83.50
2022-08-05T19:10:18.659Z,84.10
2022-08-05T19:12:55.369Z,83.80
2022-08-05T19:15:57.485Z,84.70
2022-08-05T19:18:20.648Z,85.30
2022-08-05T19:20:52.128Z,85.10
2022-08-05T19:24:04.171Z,85.70
2022-08-05T19:26:09.362Z,86.20
2022-08-05T19:28:44.497Z,86.80
2022-08-05T19:31:15.041Z,87.70
2022-08-05T19:33:55.644Z,89.00
2022-08-05T19:36:23.458Z,89.20
2022-08-05T19:38:50.301Z,90.00
2022-08-05T19:41:17.124Z,90.10
2022-08-05T19:44:06.316Z,90.70
2022-08-05T19:46:37.809Z,90.70
2022-08-05T19:49:07.758Z,90.80
2022-08-05T19:52:09.142Z,91.00
2022-08-05T19:54:31.501Z,91.30
2022-08-05T19:57:09.266Z,92.00
2022-08-05T19:59:59.428Z,91.90
2022-08-05T20:02:31.313Z,92.30
2022-08-05T20:04:58.948Z,92.50
2022-08-05T20:07:47.835Z,92.80
2022-08-05T20:10:14.693Z,92.70
2022-08-05T20:12:47.676Z,92.70
2022-08-05T20:15:48.851Z,92.90
2022-08-05T20:18:09.692Z,93.10
2022-08-05T20:20:51.207Z,93.10
2022-08-05T20:23:22.273Z,93.40
2022-08-05T20:25:49.236Z,93.80
2022-08-05T20:28:19.353Z,94.10
2022-08-05T20:30:46.352Z,94.40
2022-08-05T20:33:16.296Z,94.70
2022-08-05T20:35:45.877Z,94.90
2022-08-05T20:38:20.031Z,95.00
2022-08-05T20:40:53.602Z,95.20
2022-08-05T20:43:57.934Z,95.50
2022-08-05T20:46:10.200Z,95.50
2022-08-05T20:48:39.599Z,95.70
2022-08-05T20:51:09.242Z,95.40
2022-08-05T20:53:41.012Z,95.20
2022-08-05T20:56:09.742Z,95.10
2022-08-05T20:58:36.892Z,95.00
2022-08-05T21:01:04.659Z,95.00
2022-08-05T21:03:34.486Z,94.90
2022-08-05T21:06:02.160Z,95.00
2022-08-05T21:08:41.799Z,95.40
2022-08-05T21:11:12.273Z,95.90
2022-08-05T21:13:47.975Z,96.40
2022-08-05T21:16:23.132Z,95.80
2022-08-05T21:19:00.120Z,95.60
2022-08-05T21:21:39.196Z,96.10
2022-08-05T21:24:07.329Z,96.10
2022-08-05T21:26:34.265Z,95.80
2022-08-05T21:29:03.916Z,96.20
2022-08-05T21:31:41.123Z,96.80
2022-08-05T21:34:10.429Z,96.60
2022-08-05T21:36:38.548Z,97.20
2022-08-05T21:39:05.523Z,96.70
2022-08-05T21:41:35.542Z,96.50
2022-08-05T21:44:04.791Z,96.40
2022-08-05T21:46:34.568Z,96.80
2022-08-05T21:49:07.384Z,97.40
2022-08-05T21:52:15.837Z,97.70
2022-08-05T21:54:27.809Z,98.20
2022-08-05T21:57:28.480Z,99.20
2022-08-05T22:00:02.127Z,99.40
2022-08-05T22:02:28.622Z,99.90
2022-08-05T22:04:58.228Z,99.90
2022-08-05T22:07:39.423Z,99.90
2022-08-05T22:10:14.184Z,99.90
2022-08-05T22:12:45.079Z,99.90
2022-08-05T22:16:01.747Z,99.90
2022-08-05T22:18:06.111Z,99.90
2022-08-05T22:20:35.715Z,99.90
2022-08-05T22:23:25.357Z,99.90
2022-08-05T22:26:30.571Z,99.90
2022-08-05T22:28:57.478Z,99.90
2022-08-05T22:31:30.046Z,99.90
2022-08-05T22:34:01.611Z,99.90
2022-08-05T22:36:29.267Z,99.90
2022-08-05T22:38:56.851Z,99.90
2022-08-05T22:42:04.422Z,99.90
2022-08-05T22:44:12.114Z,99.90
2022-08-05T22:46:40.904Z,99.90
2022-08-05T22:49:46.168Z,99.90
2022-08-05T22:52:05.842Z,99.90
2022-08-05T22:54:38.820Z,99.90
2022-08-05T22:57:07.071Z,99.90
2022-08-05T22:59:45.057Z,99.90
2022-08-05T23:02:17.987Z,99.90
2022-08-05T23:04:52.119Z,99.90
2022-08-05T23:07:22.288Z,99.90
2022-08-05T23:09:54.658Z,99.90
2022-08-05T23:12:28.559Z,99.90
2022-08-05T23:14:56.187Z,99.90
2022-08-05T23:17:34.775Z,99.90
2022-08-05T23:20:16.831Z,99.90
2022-08-05T23:22:48.652Z,99.90
2022-08-05T23:25:51.726Z,99.90
2022-08-05T23:28:07.061Z,99.90
2022-08-05T23:30:40.524Z,99.90
2022-08-05T23:33:22.593Z,99.90
2022-08-05T23:35:55.878Z,99.90
2022-08-05T23:38:24.378Z,99.90
2022-08-05T23:40:52.786Z,99.90
2022-08-05T23:43:25.245Z,99.90
2022-08-05T23:46:19.723Z,99.90
2022-08-05T23:49:00.035Z,99.90
2022-08-05T23:51:54.922Z,99.90
2022-08-05T23:54:25.337Z,99.90
2022-08-05T23:56:54.013Z,99.90
2022-08-05T23:59:20.817Z,99.90
